createdAt,value
2023-05-16T00:06:06.249Z,28.70
2023-05-16T00:16:06.425Z,24.40
2023-05-16T00:26:06.214Z,28.80
2023-05-16T00:36:06.227Z,28.40
2023-05-16T00:46:06.286Z,31.40
2023-05-16T01:06:06.216Z,26.50
2023-05-16T01:16:06.306Z,26.00
2023-05-16T01:26:06.252Z,25.20
2023-05-16T01:36:06.332Z,20.70
2023-05-16T01:46:06.314Z,22.10
2023-05-16T01:56:06.243Z,21.40
2023-05-16T02:06:06.284Z,20.60
2023-05-16T02:16:06.316Z,18.50
2023-05-16T02:26:06.247Z,19.40
2023-05-16T02:36:06.293Z,17.70
2023-05-16T02:46:06.359Z,16.70
2023-05-16T03:06:06.380Z,18.60
2023-05-16T03:16:06.302Z,16.60
2023-05-16T03:26:06.422Z,14.50
2023-05-16T03:36:06.380Z,15.90
2023-05-16T03:46:06.303Z,19.30
2023-05-16T03:56:06.299Z,18.90
2023-05-16T04:06:06.358Z,18.70
2023-05-16T04:16:06.318Z,15.70
2023-05-16T04:26:06.340Z,16.40
2023-05-16T04:36:06.354Z,16.40
2023-05-16T04:46:06.309Z,11.50
2023-05-16T04:56:06.306Z,14.60
2023-05-16T05:06:06.317Z,12.00
2023-05-16T05:16:06.316Z,15.10
2023-05-16T05:26:06.341Z,16.70
2023-05-16T05:36:06.340Z,15.00
2023-05-16T05:46:06.485Z,15.40
2023-05-16T05:56:06.449Z,16.60
2023-05-16T06:06:06.485Z,14.50
2023-05-16T06:16:07.564Z,14.60
2023-05-16T06:26:06.356Z,14.20
2023-05-16T06:36:06.342Z,13.40
2023-05-16T06:46:06.387Z,12.90
2023-05-16T06:56:06.361Z,12.20
2023-05-16T07:06:06.366Z,13.70
2023-05-16T07:16:06.378Z,12.40
2023-05-16T07:26:06.371Z,11.20
2023-05-16T07:36:16.183Z,9.10
2023-05-16T07:46:06.416Z,12.30
2023-05-16T07:56:06.372Z,11.50
2023-05-16T08:06:06.541Z,11.50
2023-05-16T08:16:06.600Z,11.00
2023-05-16T08:26:06.410Z,12.10
2023-05-16T08:36:06.406Z,10.90
2023-05-16T08:46:06.408Z,11.80
2023-05-16T08:56:06.422Z,10.00
2023-05-16T09:06:08.057Z,10.40
2023-05-16T09:16:06.426Z,11.50
2023-05-16T09:26:06.436Z,11.20
2023-05-16T09:36:06.436Z,9.90
2023-05-16T09:46:06.656Z,10.60
2023-05-16T09:56:06.588Z,10.20
2023-05-16T10:06:06.460Z,9.90
2023-05-16T10:16:06.460Z,12.40
2023-05-16T10:26:06.463Z,10.90
2023-05-16T10:36:06.529Z,14.30
2023-05-16T10:46:06.488Z,13.20
2023-05-16T10:56:06.481Z,12.90
2023-05-16T11:06:06.616Z,13.00
2023-05-16T11:16:06.490Z,14.50
2023-05-16T11:26:06.475Z,14.50
2023-05-16T11:46:06.505Z,16.60
2023-05-16T11:56:06.495Z,18.70
2023-05-16T12:06:06.494Z,18.00
2023-05-16T12:16:06.533Z,20.10
2023-05-16T12:26:06.517Z,21.70
2023-05-16T12:36:06.505Z,21.00
2023-05-16T12:46:06.598Z,22.20
2023-05-16T12:56:06.543Z,21.60
2023-05-16T13:06:06.519Z,22.10
2023-05-16T13:16:06.749Z,22.60
2023-05-16T13:26:06.551Z,23.40
2023-05-16T13:36:07.849Z,24.00
2023-05-16T13:46:06.584Z,31.50
2023-05-16T13:56:06.537Z,29.90
2023-05-16T14:06:06.570Z,30.20
2023-05-16T14:16:06.644Z,33.00
2023-05-16T14:26:07.807Z,33.00
2023-05-16T14:36:08.484Z,33.40
2023-05-16T14:46:06.616Z,28.60
2023-05-16T14:56:06.582Z,29.00
2023-05-16T15:06:06.566Z,31.60
2023-05-16T15:16:06.590Z,28.10
2023-05-16T15:26:06.599Z,28.20
2023-05-16T15:36:06.581Z,29.40
2023-05-16T15:46:06.670Z,31.30
2023-05-16T15:56:06.584Z,26.50
2023-05-16T16:06:06.626Z,29.20
2023-05-16T16:16:06.669Z,30.80
2023-05-16T16:26:06.620Z,28.40
2023-05-16T16:36:06.610Z,26.70
2023-05-16T16:46:06.686Z,27.50
2023-05-16T16:56:06.634Z,28.50
2023-05-16T17:06:06.614Z,27.80
2023-05-16T17:16:06.690Z,30.30
2023-05-16T17:26:06.668Z,30.20
2023-05-16T17:36:06.619Z,30.40
2023-05-16T17:46:06.647Z,30.40
2023-05-16T17:56:06.872Z,31.30
2023-05-16T18:06:06.691Z,31.60
2023-05-16T18:16:06.673Z,34.00
2023-05-16T18:26:06.678Z,37.20
2023-05-16T18:36:06.666Z,35.90
2023-05-16T18:46:06.653Z,38.40
2023-05-16T18:56:06.663Z,38.00
2023-05-16T19:06:06.662Z,41.20
2023-05-16T19:16:06.672Z,36.70
2023-05-16T19:26:06.668Z,32.30
2023-05-16T19:36:06.662Z,29.60
2023-05-16T19:46:06.691Z,22.70
2023-05-16T19:56:06.683Z,35.90
2023-05-16T20:06:06.700Z,30.50
2023-05-16T20:16:06.700Z,29.90
2023-05-16T20:26:06.693Z,25.90
2023-05-16T20:36:06.696Z,24.40
2023-05-16T20:46:06.799Z,23.40
2023-05-16T20:56:06.696Z,26.20
2023-05-16T21:16:06.733Z,25.40
2023-05-16T21:26:06.742Z,22.90
2023-05-16T21:36:06.725Z,19.70
2023-05-16T21:46:06.742Z,25.50
2023-05-16T21:56:06.727Z,23.40
2023-05-16T22:06:06.822Z,18.40
2023-05-16T22:16:06.737Z,22.30
2023-05-16T22:26:06.737Z,22.80
2023-05-16T22:36:06.739Z,19.30
2023-05-16T22:46:06.776Z,17.90
2023-05-16T22:56:06.745Z,23.20
2023-05-16T23:06:06.750Z,20.50
2023-05-16T23:16:06.760Z,19.20
2023-05-16T23:26:06.747Z,21.30
2023-05-16T23:36:06.755Z,21.20
2023-05-16T23:46:06.758Z,19.90
2023-05-16T23:56:06.775Z,18.50
